Time;durP1;ratioP1;P1;durP2;ratioP2;P2;SDS_P1;SDS_P2;PMS_P1;PMS_P2;Temp;Humidity;BMP_temperature;BMP_pressure;BME280_temperature;BME280_humidity;BME280_pressure;Samples;Min_cycle;Max_cycle;Signal;HPM_P1;HPM_P2
2022/04/13 00:01:15;;;;;;;;;;;;;;;19.32;35.37;101316.00;102863;1320;72814;-85
2022/04/13 00:03:51;;;;;;;;;;;;;;;19.32;35.34;101319.02;103359;1320;75735;-83
2022/04/13 00:06:43;;;;;;;;;;;;;;;19.32;35.31;101317.98;103338;1320;62068;-83
2022/04/13 00:09:28;;;;;;;;;;;;;;;19.32;35.46;101316.21;103336;1320;62021;-85
2022/04/13 00:12:25;;;;;;;;;;;;;;;19.31;35.45;101316.73;102756;1325;71620;-82
2022/04/13 00:15:40;;;;;;;;;;;;;;;19.31;35.43;101320.51;102710;1325;76977;-82
2022/04/13 00:18:27;;;;;;;;;;;;;;;;;;;;;
2022/04/13 00:21:22;;;;;;;;;;;;;;;19.32;35.49;101335.48;102545;1329;62213;-86
2022/04/13 00:24:08;;;;;;;;;;;;;;;19.31;35.53;101334.42;102558;1332;73603;-78
2022/04/13 00:27:03;;;;;;;;;;;;;;;;;;;;;
2022/04/13 00:29:57;;;;;;;;;;;;;;;19.31;35.48;101334.44;102488;1331;61962;-81
2022/04/13 00:32:37;;;;;;;;;;;;;;;;;;;;;
2022/04/13 00:35:27;;;;;;;;;;;;;;;;;;;;;
2022/04/13 00:38:14;;;;;;;;;;;;;;;19.31;35.59;101332.66;103296;1319;75428;-84
2022/04/13 00:41:26;;;;;;;;;;;;;;;19.31;35.61;101332.31;103459;1319;63074;-80
2022/04/13 00:44:33;;;;;;;;;;;;;;;19.30;35.56;101331.63;103396;1319;62020;-83
2022/04/13 00:47:25;;;;;;;;;;;;;;;19.30;35.66;101328.43;102755;1328;72792;-83
2022/04/13 00:50:41;;;;;;;;;;;;;;;;;;;;;
2022/04/13 00:53:18;;;;;;;;;;;;;;;19.30;35.67;101318.80;102920;1325;62056;-83
2022/04/13 00:56:05;;;;;;;;;;;;;;;19.30;35.66;101320.59;103040;1322;62030;-84
2022/04/13 00:58:48;;;;;;;;;;;;;;;;;;;;;
2022/04/13 01:02:20;;;;;;;;;;;;;;;19.30;35.70;101322.39;103238;1322;75567;-86
2022/04/13 01:04:47;;;;;;;;;;;;;;;19.29;35.65;101321.15;103244;1322;61964;-82
2022/04/13 01:08:02;;;;;;;;;;;;;;;19.29;35.83;101320.27;103149;1321;62096;-83
2022/04/13 01:10:48;;;;;;;;;;;;;;;19.30;35.82;101320.95;103153;1321;73983;-79
2022/04/13 01:13:28;;;;;;;;;;;;;;;19.29;35.72;101320.44;103123;1322;76762;-81
2022/04/13 01:16:16;;;;;;;;;;;;;;;19.29;35.80;101314.40;103265;1322;61975;-82
2022/04/13 01:19:16;;;;;;;;;;;;;;;;;;;;;
2022/04/13 01:22:15;;;;;;;;;;;;;;;19.29;35.80;101316.89;102657;1329;73150;-84
2022/04/13 01:25:11;;;;;;;;;;;;;;;;;;;;;
2022/04/13 01:28:07;;;;;;;;;;;;;;;19.29;35.85;101317.08;102676;1329;62164;-81
2022/04/13 01:31:09;;;;;;;;;;;;;;;;;;;;;
2022/04/13 01:34:06;;;;;;;;;;;;;;;;;;;;;
2022/04/13 01:37:02;;;;;;;;;;;;;;;;;;;;;
2022/04/13 01:43:25;;;;;;;;;;;;;;;;;;;;;
2022/04/13 01:46:38;;;;;;;;;;;;;;;;;;;;;
2022/04/13 01:49:26;;;;;;;;;;;;;;;19.28;35.96;101336.55;102667;1329;75754;-84
2022/04/13 01:52:56;;;;;;;;;;;;;;;19.28;35.96;101336.73;102521;1332;62008;-83
2022/04/13 01:55:04;;;;;;;;;;;;;;;19.28;35.94;101337.98;102493;1332;62240;-82
2022/04/13 01:57:35;;;;;;;;;;;;;;;19.28;35.99;101338.70;102703;1329;73762;-83
2022/04/13 02:00:35;;;;;;;;;;;;;;;19.27;36.03;101340.69;102974;1326;75785;-84
2022/04/13 02:03:40;;;;;;;;;;;;;;;19.28;35.93;101343.19;103509;1320;62001;-83
2022/04/13 02:06:39;;;;;;;;;;;;;;;19.27;36.04;101345.00;103504;1319;62205;-84
2022/04/13 02:09:45;;;;;;;;;;;;;;;19.27;36.07;101344.30;103347;1318;71486;-83
2022/04/13 02:12:47;;;;;;;;;;;;;;;19.27;36.06;101344.29;103004;1326;74526;-82
2022/04/13 02:15:53;;;;;;;;;;;;;;;19.27;36.01;101344.29;102703;1329;62100;-84
2022/04/13 02:18:52;;;;;;;;;;;;;;;19.26;36.06;101342.70;102713;1329;62030;-83
2022/04/13 02:22:08;;;;;;;;;;;;;;;;;;;;;
2022/04/13 02:24:43;;;;;;;;;;;;;;;19.26;36.08;101344.48;102675;1328;74650;-82
2022/04/13 02:27:42;;;;;;;;;;;;;;;;;;;;;
2022/04/13 02:31:21;;;;;;;;;;;;;;;19.26;36.03;101343.42;102901;1326;62122;-83
2022/04/13 02:33:52;;;;;;;;;;;;;;;19.25;36.16;101339.00;102544;1332;72818;-86
2022/04/13 02:36:28;;;;;;;;;;;;;;;;;;;;;
2022/04/13 02:39:05;;;;;;;;;;;;;;;19.25;36.05;101337.41;102703;1329;61898;-82
2022/04/13 02:44:58;;;;;;;;;;;;;;;19.25;36.13;101339.72;102581;1329;73373;-81
2022/04/13 02:48:04;;;;;;;;;;;;;;;19.25;36.12;101341.17;102697;1329;76806;-88
2022/04/13 02:51:08;;;;;;;;;;;;;;;;;;;;;
2022/04/13 02:54:23;;;;;;;;;;;;;;;19.25;36.26;101343.88;102917;1325;62341;-79
2022/04/13 02:57:09;;;;;;;;;;;;;;;19.24;36.18;101346.02;102821;1325;71700;-82
2022/04/13 03:00:15;;;;;;;;;;;;;;;19.24;36.18;101347.81;102285;1335;74420;-84
2022/04/13 03:03:06;;;;;;;;;;;;;;;19.24;36.31;101350.30;102563;1331;62266;-82
2022/04/13 03:05:53;;;;;;;;;;;;;;;19.24;36.12;101347.83;102547;1331;62076;-83
2022/04/13 03:08:32;;;;;;;;;;;;;;;19.25;36.24;101352.45;102548;1331;72839;-84
2022/04/13 03:11:21;;;;;;;;;;;;;;;19.24;36.11;101353.52;102814;1326;74804;-84
2022/04/13 03:13:56;;;;;;;;;;;;;;;19.24;36.14;101354.45;103053;1326;61995;-82
2022/04/13 03:16:27;;;;;;;;;;;;;;;19.24;36.21;101361.06;103021;1325;62010;-82
2022/04/13 03:19:13;;;;;;;;;;;;;;;19.23;36.23;101359.84;102787;1325;72348;-83
2022/04/13 03:21:58;;;;;;;;;;;;;;;19.23;36.17;101364.31;102839;1326;76746;-82
2022/04/13 03:24:26;;;;;;;;;;;;;;;19.22;36.19;101367.73;102777;1326;62046;-82
2022/04/13 03:26:53;;;;;;;;;;;;;;;19.22;36.19;101370.59;102956;1325;61997;-84
2022/04/13 03:29:59;;;;;;;;;;;;;;;19.22;36.24;101370.80;102819;1326;71535;-82
2022/04/13 03:32:57;;;;;;;;;;;;;;;19.21;36.33;101372.06;103450;1320;75698;-88
2022/04/13 03:35:43;;;;;;;;;;;;;;;19.21;36.29;101376.90;103614;1319;62021;-84
2022/04/13 03:38:11;;;;;;;;;;;;;;;19.22;36.37;101376.88;104686;1304;62088;-82
2022/04/13 03:40:50;;;;;;;;;;;;;;;19.21;36.23;101378.32;104565;1305;73715;-83
2022/04/13 03:43:38;;;;;;;;;;;;;;;19.21;36.19;101382.80;104586;1305;75112;-85
2022/04/13 03:46:14;;;;;;;;;;;;;;;19.21;36.24;101381.93;104854;1304;61988;-85
2022/04/13 03:48:59;;;;;;;;;;;;;;;;;;;;;
2022/04/13 03:51:35;;;;;;;;;;;;;;;;;;;;;
2022/04/13 03:54:12;;;;;;;;;;;;;;;19.20;36.18;101391.39;104723;1305;75935;-86
2022/04/13 03:57:11;;;;;;;;;;;;;;;19.21;36.27;101396.20;104833;1305;62009;-79
2022/04/13 03:59:57;;;;;;;;;;;;;;;19.21;36.14;101400.30;104650;1307;62001;-82
2022/04/13 04:02:39;;;;;;;;;;;;;;;19.21;36.22;101405.47;104319;1313;73805;-82
2022/04/13 04:05:14;;;;;;;;;;;;;;;19.20;36.12;101411.20;104329;1313;76775;-84
2022/04/13 04:08:19;;;;;;;;;;;;;;;19.21;36.04;101418.15;104329;1313;62118;-82
2022/04/13 04:11:29;;;;;;;;;;;;;;;19.21;36.15;101414.19;104371;1313;61973;-81
2022/04/13 04:14:04;;;;;;;;;;;;;;;;;;;;;
2022/04/13 04:17:23;;;;;;;;;;;;;;;19.21;36.03;101421.85;103919;1317;75816;-82
2022/04/13 04:19:58;;;;;;;;;;;;;;;;;;;;;
2022/04/13 04:22:34;;;;;;;;;;;;;;;19.21;36.02;101422.77;102955;1325;62005;-85
2022/04/13 04:25:21;;;;;;;;;;;;;;;19.21;36.04;101425.64;102924;1324;74157;-86
2022/04/13 04:28:15;;;;;;;;;;;;;;;19.20;36.13;101424.05;102688;1326;76164;-83
2022/04/13 04:30:41;;;;;;;;;;;;;;;19.19;36.26;101427.36;102338;1331;60677;-80
2022/04/13 04:33:08;;;;;;;;;;;;;;;19.18;36.21;101431.50;102313;1331;60807;-81
2022/04/13 04:35:39;;;;;;;;;;;;;;;19.17;36.22;101435.46;102291;1331;72667;-82
2022/04/13 04:38:07;;;;;;;;;;;;;;;19.17;36.18;101441.21;102091;1331;75666;-80
2022/04/13 04:40:33;;;;;;;;;;;;;;;19.14;36.13;101447.59;102518;1325;62261;-81
2022/04/13 04:43:20;;;;;;;;;;;;;;;19.13;36.16;101444.63;102615;1325;62072;-80
2022/04/13 04:45:46;;;;;;;;;;;;;;;19.10;36.08;101449.02;102623;1325;72859;-80
2022/04/13 04:48:11;;;;;;;;;;;;;;;19.09;36.03;101446.77;102600;1325;62368;-81
2022/04/13 04:50:37;;;;;;;;;;;;;;;19.07;35.94;101454.20;102659;1322;62128;-80
2022/04/13 04:53:02;;;;;;;;;;;;;;;19.05;35.86;101459.29;102856;1322;64069;-80
2022/04/13 04:55:31;;;;;;;;;;;;;;;19.02;35.82;101464.08;102631;1322;62339;-80
2022/04/13 04:58:03;;;;;;;;;;;;;;;18.99;35.77;101466.56;103313;1312;62134;-80
2022/04/13 05:00:29;;;;;;;;;;;;;;;18.96;35.60;101466.36;103882;1311;62019;-81
2022/04/13 05:02:55;;;;;;;;;;;;;;;18.93;35.47;101469.53;103732;1313;60272;-79
2022/04/13 05:05:21;;;;;;;;;;;;;;;18.89;35.33;101471.33;103699;1311;62366;-80
2022/04/13 05:07:46;;;;;;;;;;;;;;;18.81;35.17;101472.63;103391;1305;62288;-80
2022/04/13 05:10:12;;;;;;;;;;;;;;;18.77;35.15;101476.95;103939;1303;62139;-80
2022/04/13 05:12:43;;;;;;;;;;;;;;;18.75;35.15;101483.27;104014;1303;62102;-80
2022/04/13 05:15:09;;;;;;;;;;;;;;;18.75;35.11;101482.71;105487;1303;73295;-80
2022/04/13 05:17:35;;;;;;;;;;;;;;;18.75;35.10;101481.80;104329;1303;62052;-81
2022/04/13 05:20:07;;;;;;;;;;;;;;;18.76;35.06;101475.70;103881;1305;62114;-80
2022/04/13 05:22:41;;;;;;;;;;;;;;;18.77;34.98;101473.00;104010;1305;61995;-80
2022/04/13 05:25:11;;;;;;;;;;;;;;;18.79;34.96;101469.90;104078;1305;73475;-80
2022/04/13 05:27:37;;;;;;;;;;;;;;;18.80;35.00;101471.08;104409;1305;76545;-82
2022/04/13 05:30:06;;;;;;;;;;;;;;;18.81;35.00;101474.05;104049;1306;62216;-81
2022/04/13 05:32:32;;;;;;;;;;;;;;;18.82;34.92;101469.90;103887;1305;62517;-80
2022/04/13 05:35:00;;;;;;;;;;;;;;;18.83;34.99;101470.91;103810;1306;62304;-81
2022/04/13 05:37:26;;;;;;;;;;;;;;;18.84;34.96;101476.77;104055;1305;75461;-80
2022/04/13 05:40:01;;;;;;;;;;;;;;;18.84;34.90;101472.27;104138;1305;62137;-80
2022/04/13 05:42:26;;;;;;;;;;;;;;;18.85;34.73;101473.66;104166;1305;62102;-79
2022/04/13 05:45:10;;;;;;;;;;;;;;;18.87;34.82;101477.51;104019;1305;71925;-81
2022/04/13 05:47:35;;;;;;;;;;;;;;;18.88;34.51;101481.73;104317;1305;62233;-81
2022/04/13 05:50:07;;;;;;;;;;;;;;;18.89;34.53;101479.55;103801;1306;62116;-80
2022/04/13 05:52:33;;;;;;;;;;;;;;;18.92;34.44;101480.31;105197;1303;60701;-80
2022/04/13 05:54:58;;;;;;;;;;;;;;;18.91;34.32;101478.94;105050;1305;60483;-79
2022/04/13 05:57:24;;;;;;;;;;;;;;;18.87;34.11;101480.88;103845;1305;62104;-80
2022/04/13 05:59:55;;;;;;;;;;;;;;;18.82;33.86;101484.70;103633;1306;62150;-78
2022/04/13 06:02:21;;;;;;;;;;;;;;;18.76;33.52;101485.86;103911;1305;62108;-79
2022/04/13 06:04:46;;;;;;;;;;;;;;;18.71;33.39;101490.95;104093;1305;62117;-80
2022/04/13 06:07:23;;;;;;;;;;;;;;;;;;;;;
2022/04/13 06:09:48;;;;;;;;;;;;;;;18.78;33.11;101494.38;103667;1306;62034;-80
2022/04/13 06:12:27;;;;;;;;;;;;;;;18.81;33.07;101492.76;103900;1305;62222;-79
2022/04/13 06:15:14;;;;;;;;;;;;;;;18.86;33.14;101489.30;103746;1305;72433;-79
2022/04/13 06:17:43;;;;;;;;;;;;;;;18.93;32.93;101490.25;104076;1305;76076;-79
2022/04/13 06:20:09;;;;;;;;;;;;;;;18.98;32.89;101488.91;104120;1304;62107;-81
2022/04/13 06:22:38;;;;;;;;;;;;;;;19.04;32.80;101487.55;103928;1305;62067;-80
2022/04/13 06:25:04;;;;;;;;;;;;;;;19.07;32.59;101489.86;103816;1307;73798;-80
2022/04/13 06:27:30;;;;;;;;;;;;;;;19.09;32.52;101486.54;104112;1304;62072;-79
2022/04/13 06:30:11;;;;;;;;;;;;;;;19.11;32.60;101487.19;104006;1305;62156;-80
2022/04/13 06:32:40;;;;;;;;;;;;;;;19.12;32.49;101484.12;104123;1305;62196;-79
2022/04/13 06:35:09;;;;;;;;;;;;;;;19.13;32.48;101488.88;104119;1304;72975;-80
2022/04/13 06:37:38;;;;;;;;;;;;;;;19.13;32.50;101485.98;103670;1310;75649;-79
2022/04/13 06:40:07;;;;;;;;;;;;;;;19.14;32.32;101488.63;103610;1308;62517;-78
2022/04/13 06:42:36;;;;;;;;;;;;;;;19.15;32.26;101488.74;103699;1310;62083;-79
2022/04/13 06:45:22;;;;;;;;;;;;;;;19.16;32.24;101484.40;103621;1309;73733;-79
2022/04/13 06:47:48;;;;;;;;;;;;;;;19.18;32.12;101486.62;103973;1307;926753;-80
2022/04/13 06:50:14;;;;;;;;;;;;;;;19.21;32.05;101488.46;103678;1310;62093;-79
2022/04/13 06:52:42;;;;;;;;;;;;;;;19.23;32.01;101484.39;103537;1308;62851;-80
2022/04/13 06:55:44;;;;;;;;;;;;;;;;;;;;;
2022/04/13 06:59:08;;;;;;;;;;;;;;;19.00;31.59;101481.66;102942;1316;74250;-81
2022/04/13 07:01:57;;;;;;;;;;;;;;;18.93;31.76;101485.95;104461;1316;61119;-80
2022/04/13 07:04:24;;;;;;;;;;;;;;;18.94;31.66;101482.34;104357;1316;61705;-81
2022/04/13 07:06:50;;;;;;;;;;;;;;;18.95;31.57;101485.70;104512;1316;72797;-80
2022/04/13 07:09:16;;;;;;;;;;;;;;;18.87;31.50;101484.30;104480;1316;61029;-80
2022/04/13 07:11:41;;;;;;;;;;;;;;;18.84;31.57;101484.05;104407;1316;60589;-81
2022/04/13 07:14:07;;;;;;;;;;;;;;;18.87;31.55;101484.29;104401;1316;60988;-81
2022/04/13 07:16:59;;;;;;;;;;;;;;;18.88;31.49;101482.44;103062;1315;62330;-81
2022/04/13 07:19:24;;;;;;;;;;;;;;;18.92;31.44;101482.09;102270;1321;75670;-79
2022/04/13 07:21:50;;;;;;;;;;;;;;;18.96;31.41;101485.62;102462;1322;62298;-80
2022/04/13 07:24:17;;;;;;;;;;;;;;;19.01;31.21;101483.03;102400;1322;62101;-80
2022/04/13 07:26:42;;;;;;;;;;;;;;;19.06;31.06;101484.95;102550;1322;62275;-81
2022/04/13 07:29:08;;;;;;;;;;;;;;;19.03;30.86;101486.53;102350;1323;62869;-80
2022/04/13 07:31:37;;;;;;;;;;;;;;;18.98;30.88;101479.27;102414;1322;62090;-79
2022/04/13 07:34:20;;;;;;;;;;;;;;;19.03;30.82;101486.70;102548;1323;62170;-80
2022/04/13 07:36:46;;;;;;;;;;;;;;;19.05;30.77;101485.16;103252;1315;62179;-81
2022/04/13 07:39:14;;;;;;;;;;;;;;;19.01;30.60;101487.52;103454;1314;62113;-79
2022/04/13 07:41:40;;;;;;;;;;;;;;;19.00;30.47;101483.10;103323;1316;61978;-79
2022/04/13 07:44:30;;;;;;;;;;;;;;;19.02;30.38;101483.36;103527;1314;62145;-80
2022/04/13 07:46:58;;;;;;;;;;;;;;;19.05;30.37;101479.63;102865;1318;74123;-80
2022/04/13 07:49:26;;;;;;;;;;;;;;;19.06;30.32;101481.53;102745;1318;75551;-79
2022/04/13 07:51:52;;;;;;;;;;;;;;;19.05;30.21;101481.25;102363;1319;62004;-78
2022/04/13 07:54:28;;;;;;;;;;;;;;;19.01;30.10;101483.24;102748;1319;62641;-82
2022/04/13 07:56:58;;;;;;;;;;;;;;;18.90;30.05;101485.56;103109;1309;73727;-81
2022/04/13 07:59:54;;;;;;;;;;;;;;;18.82;30.16;101472.94;103427;1309;77125;-82
2022/04/13 08:02:20;;;;;;;;;;;;;;;18.80;30.20;101473.42;103093;1309;60995;-81
2022/04/13 08:04:56;;;;;;;;;;;;;;;18.68;30.15;101470.60;103370;1311;62139;-81
2022/04/13 08:07:41;;;;;;;;;;;;;;;18.65;30.21;101466.48;103304;1309;75102;-81
2022/04/13 08:10:07;;;;;;;;;;;;;;;18.66;30.45;101467.83;103375;1309;76781;-81
2022/04/13 08:12:35;;;;;;;;;;;;;;;18.67;30.29;101464.62;103562;1308;62206;-81
2022/04/13 08:15:02;;;;;;;;;;;;;;;18.71;30.45;101464.77;103313;1311;62234;-79
2022/04/13 08:17:27;;;;;;;;;;;;;;;18.75;30.49;101461.15;103495;1309;73117;-80
2022/04/13 08:20:02;;;;;;;;;;;;;;;18.80;30.56;101464.27;103604;1309;62044;-80
2022/04/13 08:22:40;;;;;;;;;;;;;;;;;;;;;
2022/04/13 08:25:09;;;;;;;;;;;;;;;18.72;30.42;101461.13;103462;1309;62315;-81
2022/04/13 08:27:37;;;;;;;;;;;;;;;18.73;30.34;101460.17;103736;1309;72843;-79
2022/04/13 08:33:02;;;;;;;;;;;;;;;18.83;30.45;101451.32;103574;1309;61996;-80
2022/04/13 08:35:29;;;;;;;;;;;;;;;18.87;30.31;101452.53;103348;1311;62303;-81
2022/04/13 08:37:55;;;;;;;;;;;;;;;18.90;30.41;101453.62;103448;1311;73091;-82
2022/04/13 08:40:23;;;;;;;;;;;;;;;18.94;30.46;101458.27;103493;1310;75131;-82
2022/04/13 08:46:22;;;;;;;;;;;;;;;18.73;29.80;101448.61;103942;1306;62095;-80
2022/04/13 08:48:48;;;;;;;;;;;;;;;18.67;29.64;101447.46;104335;1308;73000;-80
2022/04/13 08:51:15;;;;;;;;;;;;;;;18.63;29.59;101438.92;103806;1306;62213;-81
2022/04/13 08:53:43;;;;;;;;;;;;;;;18.64;29.62;101439.94;103851;1305;62059;-79
2022/04/13 08:56:13;;;;;;;;;;;;;;;18.65;29.71;101440.11;103830;1303;62230;-79
2022/04/13 08:58:48;;;;;;;;;;;;;;;18.62;29.73;101428.83;104248;1305;72529;-81
2022/04/13 09:01:16;;;;;;;;;;;;;;;18.65;29.64;101432.82;103825;1305;75552;-82
2022/04/13 09:03:46;;;;;;;;;;;;;;;18.57;29.64;101427.11;103969;1303;62093;-80
2022/04/13 09:06:12;;;;;;;;;;;;;;;18.57;29.78;101419.64;105477;1305;61798;-80
2022/04/13 09:09:07;;;;;;;;;;;;;;;18.60;29.88;101416.28;104929;1305;60328;-80
2022/04/13 09:11:33;;;;;;;;;;;;;;;18.65;30.09;101411.03;103420;1311;76856;-79
2022/04/13 09:14:01;;;;;;;;;;;;;;;18.71;30.20;101406.06;103543;1311;62297;-77
2022/04/13 09:16:27;;;;;;;;;;;;;;;18.77;30.23;101402.41;104587;1311;62238;-79
2022/04/13 09:18:53;;;;;;;;;;;;;;;18.82;30.20;101396.98;103613;1311;62237;-80
2022/04/13 09:21:22;;;;;;;;;;;;;;;18.85;30.26;101388.44;103619;1311;74582;-81
2022/04/13 09:23:56;;;;;;;;;;;;;;;18.88;30.25;101385.78;103523;1310;62004;-80
2022/04/13 09:26:22;;;;;;;;;;;;;;;18.82;29.96;101390.55;103632;1313;62135;-81
2022/04/13 09:28:50;;;;;;;;;;;;;;;18.70;29.70;101386.91;103571;1312;62188;-80
2022/04/13 09:31:17;;;;;;;;;;;;;;;18.52;29.61;101385.48;103544;1313;75749;-81
2022/04/13 09:33:43;;;;;;;;;;;;;;;18.49;29.60;101381.38;103708;1313;62009;-80
2022/04/13 09:36:14;;;;;;;;;;;;;;;18.51;29.57;101377.67;103719;1313;60873;-81
2022/04/13 09:38:40;;;;;;;;;;;;;;;18.55;29.61;101379.27;103772;1311;73274;-81
2022/04/13 09:41:07;;;;;;;;;;;;;;;18.59;29.60;101379.77;103650;1311;62053;-81
2022/04/13 09:43:52;;;;;;;;;;;;;;;18.56;29.57;101379.77;103910;1311;62307;-80
2022/04/13 09:46:40;;;;;;;;;;;;;;;18.56;29.69;101376.70;103608;1311;60414;-80
2022/04/13 09:49:15;;;;;;;;;;;;;;;18.55;29.49;101376.92;103428;1306;73910;-79
2022/04/13 09:51:42;;;;;;;;;;;;;;;18.47;29.36;101375.04;103666;1303;74482;-79
2022/04/13 09:54:07;;;;;;;;;;;;;;;18.41;29.34;101373.92;103510;1306;61990;-79
2022/04/13 09:56:33;;;;;;;;;;;;;;;18.34;29.19;101378.73;103782;1305;63179;-79
2022/04/13 09:59:03;;;;;;;;;;;;;;;18.28;29.27;101369.41;103418;1306;72746;-80
2022/04/13 10:01:28;;;;;;;;;;;;;;;18.30;29.39;101366.10;103383;1305;62198;-79
2022/04/13 10:03:55;;;;;;;;;;;;;;;18.32;29.39;101355.46;103569;1305;64521;-79
2022/04/13 10:06:33;;;;;;;;;;;;;;;18.33;29.43;101360.09;103662;1305;62282;-80
2022/04/13 10:09:05;;;;;;;;;;;;;;;18.36;29.53;101364.36;103660;1305;72972;-80
2022/04/13 10:11:31;;;;;;;;;;;;;;;18.41;29.49;101360.04;103592;1306;76227;-79
2022/04/13 10:14:23;;;;;;;;;;;;;;;18.46;29.61;101364.58;103705;1307;62028;-80
2022/04/13 10:16:56;;;;;;;;;;;;;;;18.50;29.54;101369.00;103218;1313;62253;-79
2022/04/13 10:19:25;;;;;;;;;;;;;;;18.46;29.30;101370.98;103205;1313;72471;-82
2022/04/13 10:21:51;;;;;;;;;;;;;;;18.41;29.30;101367.85;103116;1313;76446;-80
2022/04/13 10:24:25;;;;;;;;;;;;;;;18.43;29.40;101369.34;104935;1312;60579;-79
2022/04/13 10:27:09;;;;;;;;;;;;;;;18.49;29.54;101366.91;104972;1311;60775;-79
2022/04/13 10:29:37;;;;;;;;;;;;;;;18.57;29.55;101361.88;104840;1313;73884;-80
2022/04/13 10:32:03;;;;;;;;;;;;;;;18.63;29.68;101363.33;103769;1311;76616;-80
2022/04/13 10:34:32;;;;;;;;;;;;;;;18.66;29.59;101356.63;103304;1313;62706;-80
2022/04/13 10:36:57;;;;;;;;;;;;;;;18.69;29.78;101355.38;103437;1313;62027;-81
2022/04/13 10:39:23;;;;;;;;;;;;;;;18.73;29.78;101349.29;103533;1311;62221;-79
2022/04/13 10:42:10;;;;;;;;;;;;;;;18.77;29.71;101349.44;103155;1317;75678;-81
2022/04/13 10:44:41;;;;;;;;;;;;;;;18.81;29.74;101346.73;104332;1318;61119;-78
2022/04/13 10:47:07;;;;;;;;;;;;;;;18.82;29.84;101342.57;104108;1319;61599;-79
2022/04/13 10:49:51;;;;;;;;;;;;;;;18.82;29.59;101344.00;104324;1317;60493;-80
2022/04/13 10:52:20;;;;;;;;;;;;;;;18.75;29.52;101339.02;104358;1317;76606;-79
2022/04/13 10:54:48;;;;;;;;;;;;;;;18.70;29.42;101341.40;104242;1313;61591;-80
2022/04/13 10:57:14;;;;;;;;;;;;;;;18.71;29.34;101341.36;104809;1313;61294;-79
2022/04/13 10:59:43;;;;;;;;;;;;;;;18.63;29.08;101332.72;104766;1313;60160;-79
2022/04/13 11:02:24;;;;;;;;;;;;;;;18.56;29.18;101331.11;104957;1313;75655;-79
2022/04/13 11:04:49;;;;;;;;;;;;;;;18.53;29.14;101330.34;104883;1313;61059;-79
2022/04/13 11:07:16;;;;;;;;;;;;;;;18.56;29.19;101328.38;104790;1313;60144;-79
2022/04/13 11:09:41;;;;;;;;;;;;;;;18.60;29.15;101326.06;104797;1313;60284;-79
2022/04/13 11:12:07;;;;;;;;;;;;;;;18.62;29.15;101325.65;104902;1313;60036;-79
2022/04/13 11:14:53;;;;;;;;;;;;;;;18.62;29.24;101321.32;103670;1314;62221;-80
2022/04/13 11:17:39;;;;;;;;;;;;;;;18.65;29.13;101314.23;103606;1313;62093;-81
2022/04/13 11:20:20;;;;;;;;;;;;;;;18.66;29.09;101317.04;103242;1311;75449;-80
2022/04/13 11:22:56;;;;;;;;;;;;;;;18.64;28.92;101309.98;103598;1313;77304;-83
2022/04/13 11:25:43;;;;;;;;;;;;;;;18.60;28.90;101314.13;104185;1313;60382;-80
2022/04/13 11:28:32;;;;;;;;;;;;;;;18.58;28.82;101312.98;103575;1314;62120;-80
2022/04/13 11:30:59;;;;;;;;;;;;;;;18.54;28.81;101311.58;105053;1313;73722;-79
2022/04/13 11:33:38;;;;;;;;;;;;;;;18.52;28.73;101303.68;103960;1313;61966;-80
2022/04/13 11:36:07;;;;;;;;;;;;;;;18.48;28.61;101302.29;103516;1313;62097;-80
2022/04/13 11:38:36;;;;;;;;;;;;;;;18.42;28.62;101301.16;103859;1312;62102;-81
2022/04/13 11:41:19;;;;;;;;;;;;;;;18.38;28.43;101298.13;103771;1314;73924;-81
2022/04/13 11:43:45;;;;;;;;;;;;;;;18.31;28.45;101294.41;103798;1313;77053;-81
2022/04/13 11:46:38;;;;;;;;;;;;;;;18.31;28.46;101283.91;103813;1314;62083;-78
2022/04/13 11:49:11;;;;;;;;;;;;;;;18.35;28.48;101281.55;103896;1312;62650;-81
2022/04/13 11:51:46;;;;;;;;;;;;;;;18.40;28.49;101277.74;104043;1312;72856;-81
2022/04/13 11:54:16;;;;;;;;;;;;;;;18.45;28.51;101273.01;103714;1311;76797;-82
2022/04/13 11:57:06;;;;;;;;;;;;;;;18.48;28.44;101271.27;103704;1309;64294;-80
2022/04/13 11:59:49;;;;;;;;;;;;;;;18.50;28.58;101259.04;104310;1305;62108;-81
2022/04/13 12:02:18;;;;;;;;;;;;;;;18.54;28.62;101253.48;104116;1306;71539;-79
2022/04/13 12:04:52;;;;;;;;;;;;;;;18.56;28.69;101256.73;104090;1306;75968;-80
2022/04/13 12:07:40;;;;;;;;;;;;;;;18.61;28.75;101255.44;104929;1313;60656;-79
2022/04/13 12:10:07;;;;;;;;;;;;;;;18.65;28.93;101248.09;104031;1313;62140;-81
2022/04/13 12:12:37;;;;;;;;;;;;;;;18.69;29.01;101247.14;103994;1314;73956;-80
2022/04/13 12:15:06;;;;;;;;;;;;;;;18.72;29.02;101249.09;103523;1313;76483;-80
2022/04/13 12:17:31;;;;;;;;;;;;;;;18.75;29.17;101245.73;103712;1313;62162;-81
2022/04/13 12:20:00;;;;;;;;;;;;;;;18.79;29.19;101240.91;103734;1313;62195;-80
2022/04/13 12:22:36;;;;;;;;;;;;;;;18.82;29.20;101240.01;103779;1313;73079;-81
2022/04/13 12:25:10;;;;;;;;;;;;;;;18.85;29.27;101234.70;103619;1316;75646;-81
2022/04/13 12:27:43;;;;;;;;;;;;;;;18.88;29.20;101231.35;103692;1314;62711;-80
2022/04/13 12:30:26;;;;;;;;;;;;;;;18.91;29.32;101234.20;103766;1314;62003;-82
2022/04/13 12:33:26;;;;;;;;;;;;;;;18.93;29.31;101233.38;103856;1314;73825;-79
2022/04/13 12:36:01;;;;;;;;;;;;;;;18.95;29.39;101223.86;103812;1316;75686;-81
2022/04/13 12:38:58;;;;;;;;;;;;;;;;;;;;;
2022/04/13 12:41:45;;;;;;;;;;;;;;;18.98;29.44;101219.91;103314;1320;62319;-85
2022/04/13 12:44:15;;;;;;;;;;;;;;;18.99;29.49;101215.95;103453;1317;73933;-81
2022/04/13 12:46:56;;;;;;;;;;;;;;;19.00;29.47;101215.00;104116;1308;76453;-81
2022/04/13 12:49:25;;;;;;;;;;;;;;;19.01;29.39;101218.89;103976;1308;62086;-79
2022/04/13 12:51:57;;;;;;;;;;;;;;;18.99;29.30;101213.61;103942;1308;62150;-80
2022/04/13 12:54:32;;;;;;;;;;;;;;;18.99;29.40;101202.38;103923;1308;62117;-80
2022/04/13 12:57:00;;;;;;;;;;;;;;;18.99;29.29;101203.79;103828;1308;76024;-79
2022/04/13 12:59:34;;;;;;;;;;;;;;;19.00;29.36;101210.38;103990;1306;62109;-79
2022/04/13 13:02:00;;;;;;;;;;;;;;;19.02;29.35;101205.61;104210;1305;65046;-80
2022/04/13 13:04:36;;;;;;;;;;;;;;;19.03;29.45;101199.28;104029;1305;72139;-82
2022/04/13 13:07:11;;;;;;;;;;;;;;;19.05;29.43;101190.61;104446;1305;75666;-80
2022/04/13 13:10:13;;;;;;;;;;;;;;;19.07;29.52;101185.15;104330;1305;62123;-80
2022/04/13 13:12:42;;;;;;;;;;;;;;;19.09;29.42;101176.83;104308;1305;62008;-81
2022/04/13 13:15:22;;;;;;;;;;;;;;;;;;;;;
2022/04/13 13:17:50;;;;;;;;;;;;;;;19.13;29.60;101182.90;104012;1306;74362;-80
2022/04/13 13:20:22;;;;;;;;;;;;;;;19.14;29.57;101183.17;104461;1305;62006;-79
2022/04/13 13:22:57;;;;;;;;;;;;;;;19.16;29.55;101182.86;104436;1304;62150;-79
2022/04/13 13:25:41;;;;;;;;;;;;;;;19.21;29.62;101177.40;104203;1306;74071;-80
2022/04/13 13:28:15;;;;;;;;;;;;;;;19.26;29.69;101179.64;104361;1305;74421;-79
2022/04/13 13:31:11;;;;;;;;;;;;;;;19.30;29.70;101176.02;104538;1305;61992;-80
2022/04/13 13:33:41;;;;;;;;;;;;;;;19.33;29.80;101178.15;104711;1305;61952;-83
2022/04/13 13:36:35;;;;;;;;;;;;;;;19.36;29.74;101173.36;104626;1305;73944;-80
2022/04/13 13:39:22;;;;;;;;;;;;;;;19.38;29.98;101167.70;104502;1305;76786;-82
2022/04/13 13:42:10;;;;;;;;;;;;;;;19.40;29.87;101160.95;104503;1306;61693;-82
2022/04/13 13:45:21;;;;;;;;;;;;;;;19.42;29.81;101158.91;104162;1311;62306;-83
2022/04/13 13:47:58;;;;;;;;;;;;;;;19.43;29.92;101163.45;104212;1311;72734;-83
2022/04/13 13:51:10;;;;;;;;;;;;;;;19.44;29.99;101160.55;103808;1317;77711;-85
2022/04/13 13:53:50;;;;;;;;;;;;;;;19.45;30.00;101156.05;103924;1317;62210;-82
2022/04/13 13:56:22;;;;;;;;;;;;;;;19.46;29.99;101153.70;104019;1317;62102;-81
2022/04/13 13:59:22;;;;;;;;;;;;;;;19.46;29.98;101154.05;103898;1317;72945;-84
2022/04/13 14:02:05;;;;;;;;;;;;;;;19.46;30.13;101148.52;104062;1316;75629;-82
2022/04/13 14:05:23;;;;;;;;;;;;;;;;;;;;;
2022/04/13 14:08:06;;;;;;;;;;;;;;;19.46;29.88;101152.77;104074;1316;62177;-81
2022/04/13 14:11:10;;;;;;;;;;;;;;;;;;;;;
2022/04/13 14:14:17;;;;;;;;;;;;;;;;;;;;;